sensor_id;sensor_type;location;lat;lon;timestamp;temperature;humidity
11047;DHT22;5576;50.008;10.596;2023-08-30T00:00:19;14.30;99.90
11047;DHT22;5576;50.008;10.596;2023-08-30T00:02:47;14.30;99.90
11047;DHT22;5576;50.008;10.596;2023-08-30T00:05:13;14.30;99.90
11047;DHT22;5576;50.008;10.596;2023-08-30T00:07:39;14.30;99.90
11047;DHT22;5576;50.008;10.596;2023-08-30T00:10:07;14.20;99.90
11047;DHT22;5576;50.008;10.596;2023-08-30T00:12:33;14.20;99.90
11047;DHT22;5576;50.008;10.596;2023-08-30T00:14:59;14.10;99.90
11047;DHT22;5576;50.008;10.596;2023-08-30T00:17:24;14.00;99.90
11047;DHT22;5576;50.008;10.596;2023-08-30T00:19:50;14.00;99.90
11047;DHT22;5576;50.008;10.596;2023-08-30T00:22:18;13.90;99.90
11047;DHT22;5576;50.008;10.596;2023-08-30T00:24:44;14.10;99.90
11047;DHT22;5576;50.008;10.596;2023-08-30T00:27:11;15.20;99.90
11047;DHT22;5576;50.008;10.596;2023-08-30T00:29:37;14.10;99.90
11047;DHT22;5576;50.008;10.596;2023-08-30T00:32:03;14.10;99.90
11047;DHT22;5576;50.008;10.596;2023-08-30T00:34:29;14.10;99.90
11047;DHT22;5576;50.008;10.596;2023-08-30T00:36:55;14.00;99.90
11047;DHT22;5576;50.008;10.596;2023-08-30T00:39:21;14.10;99.90
11047;DHT22;5576;50.008;10.596;2023-08-30T00:44:14;13.90;99.90
11047;DHT22;5576;50.008;10.596;2023-08-30T00:46:39;12.50;99.90
11047;DHT22;5576;50.008;10.596;2023-08-30T00:49:06;13.80;99.90
11047;DHT22;5576;50.008;10.596;2023-08-30T00:51:32;17.50;99.90
11047;DHT22;5576;50.008;10.596;2023-08-30T00:53:59;13.80;99.90
11047;DHT22;5576;50.008;10.596;2023-08-30T00:56:27;13.80;99.90
11047;DHT22;5576;50.008;10.596;2023-08-30T00:58:53;13.80;99.90
11047;DHT22;5576;50.008;10.596;2023-08-30T01:05:22;13.80;99.90
11047;DHT22;5576;50.008;10.596;2023-08-30T01:10:47;13.80;99.90
11047;DHT22;5576;50.008;10.596;2023-08-30T01:13:52;13.70;99.90
11047;DHT22;5576;50.008;10.596;2023-08-30T01:20:07;13.30;99.90
11047;DHT22;5576;50.008;10.596;2023-08-30T01:25:19;13.20;99.90
11047;DHT22;5576;50.008;10.596;2023-08-30T01:30:17;13.10;99.90
11047;DHT22;5576;50.008;10.596;2023-08-30T01:32:44;13.00;99.90
11047;DHT22;5576;50.008;10.596;2023-08-30T01:35:12;13.10;99.90
11047;DHT22;5576;50.008;10.596;2023-08-30T01:37:44;13.10;99.90
11047;DHT22;5576;50.008;10.596;2023-08-30T01:40:11;10.50;99.90
11047;DHT22;5576;50.008;10.596;2023-08-30T01:42:38;13.00;99.90
11047;DHT22;5576;50.008;10.596;2023-08-30T01:45:05;12.90;99.90
11047;DHT22;5576;50.008;10.596;2023-08-30T01:47:35;15.60;99.90
11047;DHT22;5576;50.008;10.596;2023-08-30T01:50:02;13.00;99.90
11047;DHT22;5576;50.008;10.596;2023-08-30T01:52:30;13.10;99.90
11047;DHT22;5576;50.008;10.596;2023-08-30T01:54:57;13.00;99.90
11047;DHT22;5576;50.008;10.596;2023-08-30T01:57:23;11.10;99.90
11047;DHT22;5576;50.008;10.596;2023-08-30T01:59:49;14.70;99.90
11047;DHT22;5576;50.008;10.596;2023-08-30T02:02:15;13.00;99.90
11047;DHT22;5576;50.008;10.596;2023-08-30T02:04:41;12.70;99.90
11047;DHT22;5576;50.008;10.596;2023-08-30T02:07:16;10.00;99.90
11047;DHT22;5576;50.008;10.596;2023-08-30T02:10:02;13.10;99.90
11047;DHT22;5576;50.008;10.596;2023-08-30T02:12:37;13.20;99.90
11047;DHT22;5576;50.008;10.596;2023-08-30T02:15:07;13.20;99.90
11047;DHT22;5576;50.008;10.596;2023-08-30T02:17:34;16.50;99.90
11047;DHT22;5576;50.008;10.596;2023-08-30T02:20:02;13.10;99.90
11047;DHT22;5576;50.008;10.596;2023-08-30T02:22:30;13.10;99.90
11047;DHT22;5576;50.008;10.596;2023-08-30T02:24:56;13.50;99.90
11047;DHT22;5576;50.008;10.596;2023-08-30T02:27:23;13.10;99.90
11047;DHT22;5576;50.008;10.596;2023-08-30T02:29:49;13.00;99.90
11047;DHT22;5576;50.008;10.596;2023-08-30T02:32:14;13.00;99.90
11047;DHT22;5576;50.008;10.596;2023-08-30T02:34:50;14.40;99.90
11047;DHT22;5576;50.008;10.596;2023-08-30T02:37:16;12.90;99.90
11047;DHT22;5576;50.008;10.596;2023-08-30T02:39:42;12.70;99.90
11047;DHT22;5576;50.008;10.596;2023-08-30T02:42:08;12.70;99.90
11047;DHT22;5576;50.008;10.596;2023-08-30T02:44:34;12.70;99.90
11047;DHT22;5576;50.008;10.596;2023-08-30T02:47:01;12.60;99.90
11047;DHT22;5576;50.008;10.596;2023-08-30T02:49:26;12.40;99.90
11047;DHT22;5576;50.008;10.596;2023-08-30T02:51:52;12.40;99.90
11047;DHT22;5576;50.008;10.596;2023-08-30T02:54:18;12.30;99.90
11047;DHT22;5576;50.008;10.596;2023-08-30T02:56:44;14.50;99.90
11047;DHT22;5576;50.008;10.596;2023-08-30T02:59:11;12.20;99.90
11047;DHT22;5576;50.008;10.596;2023-08-30T03:01:38;12.20;99.90
11047;DHT22;5576;50.008;10.596;2023-08-30T03:04:05;12.10;99.90
11047;DHT22;5576;50.008;10.596;2023-08-30T03:06:33;12.10;99.90
11047;DHT22;5576;50.008;10.596;2023-08-30T03:09:01;12.10;99.90
11047;DHT22;5576;50.008;10.596;2023-08-30T03:11:29;12.20;99.90
11047;DHT22;5576;50.008;10.596;2023-08-30T03:13:55;12.40;99.90
11047;DHT22;5576;50.008;10.596;2023-08-30T03:16:21;12.40;99.90
11047;DHT22;5576;50.008;10.596;2023-08-30T03:18:47;12.30;99.90
11047;DHT22;5576;50.008;10.596;2023-08-30T03:21:13;12.20;99.90
11047;DHT22;5576;50.008;10.596;2023-08-30T03:23:40;12.10;99.90
11047;DHT22;5576;50.008;10.596;2023-08-30T03:26:10;12.10;99.90
11047;DHT22;5576;50.008;10.596;2023-08-30T03:28:37;14.20;99.90
11047;DHT22;5576;50.008;10.596;2023-08-30T03:31:14;8.70;99.90
11047;DHT22;5576;50.008;10.596;2023-08-30T03:33:41;12.10;99.90
11047;DHT22;5576;50.008;10.596;2023-08-30T03:36:09;12.10;99.90
11047;DHT22;5576;50.008;10.596;2023-08-30T03:38:36;12.20;99.90
11047;DHT22;5576;50.008;10.596;2023-08-30T03:41:03;12.30;99.90
11047;DHT22;5576;50.008;10.596;2023-08-30T03:43:30;12.30;99.90
11047;DHT22;5576;50.008;10.596;2023-08-30T03:45:55;12.30;99.90
11047;DHT22;5576;50.008;10.596;2023-08-30T03:48:25;12.20;99.90
11047;DHT22;5576;50.008;10.596;2023-08-30T03:50:50;12.10;99.90
11047;DHT22;5576;50.008;10.596;2023-08-30T03:53:16;12.20;99.90
11047;DHT22;5576;50.008;10.596;2023-08-30T03:55:42;12.20;99.90
11047;DHT22;5576;50.008;10.596;2023-08-30T03:58:08;12.20;99.90
11047;DHT22;5576;50.008;10.596;2023-08-30T04:00:37;12.30;99.90
11047;DHT22;5576;50.008;10.596;2023-08-30T04:03:04;12.30;99.90
11047;DHT22;5576;50.008;10.596;2023-08-30T04:05:33;12.10;99.90
11047;DHT22;5576;50.008;10.596;2023-08-30T04:08:01;12.20;99.90
11047;DHT22;5576;50.008;10.596;2023-08-30T04:10:26;12.20;99.90
11047;DHT22;5576;50.008;10.596;2023-08-30T04:12:52;12.30;99.90
11047;DHT22;5576;50.008;10.596;2023-08-30T04:15:18;12.30;99.90
11047;DHT22;5576;50.008;10.596;2023-08-30T04:17:43;12.30;99.90
11047;DHT22;5576;50.008;10.596;2023-08-30T04:20:09;12.40;99.90
11047;DHT22;5576;50.008;10.596;2023-08-30T04:22:36;12.60;99.90
11047;DHT22;5576;50.008;10.596;2023-08-30T04:25:03;12.70;99.90
11047;DHT22;5576;50.008;10.596;2023-08-30T04:27:29;12.70;99.90
11047;DHT22;5576;50.008;10.596;2023-08-30T04:29:54;11.20;99.90
11047;DHT22;5576;50.008;10.596;2023-08-30T04:32:20;12.90;99.90
11047;DHT22;5576;50.008;10.596;2023-08-30T04:34:46;12.80;99.90
11047;DHT22;5576;50.008;10.596;2023-08-30T04:37:12;12.80;99.90
11047;DHT22;5576;50.008;10.596;2023-08-30T04:42:11;10.70;99.90
11047;DHT22;5576;50.008;10.596;2023-08-30T04:44:38;13.10;99.90
11047;DHT22;5576;50.008;10.596;2023-08-30T04:47:06;13.10;99.90
11047;DHT22;5576;50.008;10.596;2023-08-30T04:49:33;13.20;99.90
11047;DHT22;5576;50.008;10.596;2023-08-30T04:52:01;13.20;99.90
11047;DHT22;5576;50.008;10.596;2023-08-30T04:54:27;13.20;99.90
11047;DHT22;5576;50.008;10.596;2023-08-30T04:56:53;13.40;99.90
11047;DHT22;5576;50.008;10.596;2023-08-30T04:59:20;13.40;99.90
11047;DHT22;5576;50.008;10.596;2023-08-30T05:01:47;13.40;99.90
11047;DHT22;5576;50.008;10.596;2023-08-30T05:04:13;13.50;99.90
11047;DHT22;5576;50.008;10.596;2023-08-30T05:06:39;13.50;99.90
11047;DHT22;5576;50.008;10.596;2023-08-30T05:09:05;13.50;99.90
11047;DHT22;5576;50.008;10.596;2023-08-30T05:11:32;13.50;99.90
11047;DHT22;5576;50.008;10.596;2023-08-30T05:13:58;13.50;99.90
11047;DHT22;5576;50.008;10.596;2023-08-30T05:16:23;13.40;99.90
11047;DHT22;5576;50.008;10.596;2023-08-30T05:18:50;13.40;99.90
11047;DHT22;5576;50.008;10.596;2023-08-30T05:21:16;13.40;99.90
11047;DHT22;5576;50.008;10.596;2023-08-30T05:23:42;13.40;99.90
11047;DHT22;5576;50.008;10.596;2023-08-30T05:26:09;13.40;99.90
11047;DHT22;5576;50.008;10.596;2023-08-30T05:28:35;13.20;99.90
11047;DHT22;5576;50.008;10.596;2023-08-30T05:31:01;13.20;99.90
11047;DHT22;5576;50.008;10.596;2023-08-30T05:33:46;13.30;99.90
11047;DHT22;5576;50.008;10.596;2023-08-30T05:36:32;13.30;99.90
11047;DHT22;5576;50.008;10.596;2023-08-30T05:39:12;13.30;99.90
11047;DHT22;5576;50.008;10.596;2023-08-30T05:41:44;13.30;99.90
11047;DHT22;5576;50.008;10.596;2023-08-30T05:44:10;13.30;99.90
11047;DHT22;5576;50.008;10.596;2023-08-30T05:46:36;13.30;99.90
11047;DHT22;5576;50.008;10.596;2023-08-30T05:49:02;17.70;99.90
11047;DHT22;5576;50.008;10.596;2023-08-30T05:51:29;13.40;99.90
11047;DHT22;5576;50.008;10.596;2023-08-30T05:53:54;13.40;99.90
11047;DHT22;5576;50.008;10.596;2023-08-30T05:56:21;13.30;99.90
11047;DHT22;5576;50.008;10.596;2023-08-30T05:58:46;13.50;99.90
11047;DHT22;5576;50.008;10.596;2023-08-30T06:01:13;17.70;99.90
11047;DHT22;5576;50.008;10.596;2023-08-30T06:03:39;13.40;99.90
11047;DHT22;5576;50.008;10.596;2023-08-30T06:06:05;13.50;99.90
11047;DHT22;5576;50.008;10.596;2023-08-30T06:08:30;13.40;99.90
11047;DHT22;5576;50.008;10.596;2023-08-30T06:10:56;13.40;99.90
11047;DHT22;5576;50.008;10.596;2023-08-30T06:13:22;13.50;99.90
11047;DHT22;5576;50.008;10.596;2023-08-30T06:15:52;13.50;99.90
11047;DHT22;5576;50.008;10.596;2023-08-30T06:18:18;13.60;99.90
11047;DHT22;5576;50.008;10.596;2023-08-30T06:20:44;13.60;99.90
11047;DHT22;5576;50.008;10.596;2023-08-30T06:23:09;17.30;99.90
11047;DHT22;5576;50.008;10.596;2023-08-30T06:25:35;13.60;99.90
11047;DHT22;5576;50.008;10.596;2023-08-30T06:28:01;18.40;99.90
11047;DHT22;5576;50.008;10.596;2023-08-30T06:30:29;13.70;99.90
11047;DHT22;5576;50.008;10.596;2023-08-30T06:32:55;13.60;99.90
11047;DHT22;5576;50.008;10.596;2023-08-30T06:35:21;13.80;99.90
11047;DHT22;5576;50.008;10.596;2023-08-30T06:37:47;13.80;99.90
11047;DHT22;5576;50.008;10.596;2023-08-30T06:40:13;13.90;99.90
11047;DHT22;5576;50.008;10.596;2023-08-30T06:42:38;13.90;99.90
11047;DHT22;5576;50.008;10.596;2023-08-30T06:45:05;13.90;99.90
11047;DHT22;5576;50.008;10.596;2023-08-30T06:47:31;18.70;99.90
11047;DHT22;5576;50.008;10.596;2023-08-30T06:49:56;14.10;99.90
11047;DHT22;5576;50.008;10.596;2023-08-30T06:52:22;14.10;99.90
11047;DHT22;5576;50.008;10.596;2023-08-30T06:54:48;14.20;99.90
11047;DHT22;5576;50.008;10.596;2023-08-30T06:57:14;14.20;99.90
11047;DHT22;5576;50.008;10.596;2023-08-30T06:59:39;14.30;99.90
11047;DHT22;5576;50.008;10.596;2023-08-30T07:02:05;14.30;99.90
11047;DHT22;5576;50.008;10.596;2023-08-30T07:04:31;14.30;99.90
11047;DHT22;5576;50.008;10.596;2023-08-30T07:06:57;14.40;99.90
11047;DHT22;5576;50.008;10.596;2023-08-30T07:09:23;14.50;99.90
11047;DHT22;5576;50.008;10.596;2023-08-30T07:11:54;14.50;99.90
11047;DHT22;5576;50.008;10.596;2023-08-30T07:14:20;14.50;99.90
11047;DHT22;5576;50.008;10.596;2023-08-30T07:16:46;14.60;99.90
11047;DHT22;5576;50.008;10.596;2023-08-30T07:19:12;14.70;99.90
11047;DHT22;5576;50.008;10.596;2023-08-30T07:21:37;14.80;99.90
11047;DHT22;5576;50.008;10.596;2023-08-30T07:24:06;14.80;99.90
11047;DHT22;5576;50.008;10.596;2023-08-30T07:26:32;14.70;99.90
11047;DHT22;5576;50.008;10.596;2023-08-30T07:28:57;15.10;99.90
11047;DHT22;5576;50.008;10.596;2023-08-30T07:31:23;15.20;99.90
11047;DHT22;5576;50.008;10.596;2023-08-30T07:33:49;14.80;99.90
11047;DHT22;5576;50.008;10.596;2023-08-30T07:36:14;15.10;99.90
11047;DHT22;5576;50.008;10.596;2023-08-30T07:38:40;15.10;99.90
11047;DHT22;5576;50.008;10.596;2023-08-30T07:41:06;15.90;99.90
11047;DHT22;5576;50.008;10.596;2023-08-30T07:43:32;15.20;99.90
11047;DHT22;5576;50.008;10.596;2023-08-30T07:45:58;15.10;99.90
11047;DHT22;5576;50.008;10.596;2023-08-30T07:48:24;15.20;99.90
11047;DHT22;5576;50.008;10.596;2023-08-30T07:50:50;15.20;99.90
11047;DHT22;5576;50.008;10.596;2023-08-30T07:53:16;15.20;99.90
11047;DHT22;5576;50.008;10.596;2023-08-30T07:55:41;15.10;99.90
11047;DHT22;5576;50.008;10.596;2023-08-30T07:58:07;15.20;99.90
11047;DHT22;5576;50.008;10.596;2023-08-30T08:00:35;15.20;99.90
11047;DHT22;5576;50.008;10.596;2023-08-30T08:03:01;15.10;99.90
11047;DHT22;5576;50.008;10.596;2023-08-30T08:05:27;15.10;99.90
11047;DHT22;5576;50.008;10.596;2023-08-30T08:07:53;15.00;99.90
11047;DHT22;5576;50.008;10.596;2023-08-30T08:10:20;13.70;99.90
11047;DHT22;5576;50.008;10.596;2023-08-30T08:15:12;15.00;99.90
11047;DHT22;5576;50.008;10.596;2023-08-30T08:17:37;15.00;99.90
11047;DHT22;5576;50.008;10.596;2023-08-30T08:20:05;14.90;99.90
11047;DHT22;5576;50.008;10.596;2023-08-30T08:22:31;14.40;99.90
11047;DHT22;5576;50.008;10.596;2023-08-30T08:24:57;14.80;99.90
11047;DHT22;5576;50.008;10.596;2023-08-30T08:27:24;15.00;99.90
11047;DHT22;5576;50.008;10.596;2023-08-30T08:29:51;14.90;99.90
11047;DHT22;5576;50.008;10.596;2023-08-30T08:32:16;15.00;99.90
11047;DHT22;5576;50.008;10.596;2023-08-30T08:34:42;17.50;99.90
11047;DHT22;5576;50.008;10.596;2023-08-30T08:37:08;15.00;99.90
11047;DHT22;5576;50.008;10.596;2023-08-30T08:39:33;15.00;99.90
11047;DHT22;5576;50.008;10.596;2023-08-30T08:41:59;15.10;99.90
11047;DHT22;5576;50.008;10.596;2023-08-30T08:44:27;15.20;99.90
11047;DHT22;5576;50.008;10.596;2023-08-30T08:46:54;15.20;99.90
11047;DHT22;5576;50.008;10.596;2023-08-30T08:49:20;15.30;99.90
11047;DHT22;5576;50.008;10.596;2023-08-30T08:51:46;15.30;99.90
11047;DHT22;5576;50.008;10.596;2023-08-30T08:54:12;15.40;99.90
11047;DHT22;5576;50.008;10.596;2023-08-30T08:56:39;15.50;99.90
11047;DHT22;5576;50.008;10.596;2023-08-30T08:59:06;15.60;99.90
11047;DHT22;5576;50.008;10.596;2023-08-30T09:01:34;15.60;99.90
11047;DHT22;5576;50.008;10.596;2023-08-30T09:04:05;15.70;99.90
11047;DHT22;5576;50.008;10.596;2023-08-30T09:06:31;15.80;99.90
11047;DHT22;5576;50.008;10.596;2023-08-30T09:08:57;15.90;99.90
11047;DHT22;5576;50.008;10.596;2023-08-30T09:11:23;15.90;99.90
11047;DHT22;5576;50.008;10.596;2023-08-30T09:13:48;15.70;99.90
11047;DHT22;5576;50.008;10.596;2023-08-30T09:16:14;15.70;99.90
11047;DHT22;5576;50.008;10.596;2023-08-30T09:18:42;15.90;99.90
11047;DHT22;5576;50.008;10.596;2023-08-30T09:21:10;16.00;99.90
11047;DHT22;5576;50.008;10.596;2023-08-30T09:23:36;16.10;99.90
11047;DHT22;5576;50.008;10.596;2023-08-30T09:26:03;16.30;99.90
11047;DHT22;5576;50.008;10.596;2023-08-30T09:28:29;16.60;99.90
11047;DHT22;5576;50.008;10.596;2023-08-30T09:30:57;16.60;99.90
11047;DHT22;5576;50.008;10.596;2023-08-30T09:33:33;16.70;99.90
11047;DHT22;5576;50.008;10.596;2023-08-30T09:35:59;16.80;99.90
11047;DHT22;5576;50.008;10.596;2023-08-30T09:38:25;17.00;99.90
11047;DHT22;5576;50.008;10.596;2023-08-30T09:40:52;17.10;99.90
11047;DHT22;5576;50.008;10.596;2023-08-30T09:43:19;17.10;99.90
11047;DHT22;5576;50.008;10.596;2023-08-30T09:45:47;17.00;99.90
11047;DHT22;5576;50.008;10.596;2023-08-30T09:48:13;17.20;99.90
11047;DHT22;5576;50.008;10.596;2023-08-30T09:50:42;17.20;99.90
11047;DHT22;5576;50.008;10.596;2023-08-30T09:53:11;17.20;99.90
11047;DHT22;5576;50.008;10.596;2023-08-30T09:55:40;17.20;99.90
11047;DHT22;5576;50.008;10.596;2023-08-30T09:58:07;17.10;99.90
11047;DHT22;5576;50.008;10.596;2023-08-30T10:00:33;17.10;99.90
11047;DHT22;5576;50.008;10.596;2023-08-30T10:02:59;17.20;99.90
11047;DHT22;5576;50.008;10.596;2023-08-30T10:05:26;17.30;99.90
11047;DHT22;5576;50.008;10.596;2023-08-30T10:07:53;21.00;99.90
11047;DHT22;5576;50.008;10.596;2023-08-30T10:10:20;17.60;99.90
11047;DHT22;5576;50.008;10.596;2023-08-30T10:12:47;17.70;99.90
11047;DHT22;5576;50.008;10.596;2023-08-30T10:15:13;13.70;99.90
11047;DHT22;5576;50.008;10.596;2023-08-30T10:17:41;17.90;99.90
11047;DHT22;5576;50.008;10.596;2023-08-30T10:20:11;15.50;99.90
11047;DHT22;5576;50.008;10.596;2023-08-30T10:22:40;17.90;99.90
11047;DHT22;5576;50.008;10.596;2023-08-30T10:25:10;18.00;99.90
11047;DHT22;5576;50.008;10.596;2023-08-30T10:27:40;18.10;99.90
11047;DHT22;5576;50.008;10.596;2023-08-30T10:30:08;18.20;99.90
11047;DHT22;5576;50.008;10.596;2023-08-30T10:32:43;18.40;99.90
11047;DHT22;5576;50.008;10.596;2023-08-30T10:35:13;18.60;99.90
11047;DHT22;5576;50.008;10.596;2023-08-30T10:37:40;18.70;99.90
11047;DHT22;5576;50.008;10.596;2023-08-30T10:40:06;22.10;99.90
11047;DHT22;5576;50.008;10.596;2023-08-30T10:42:33;19.00;99.90
11047;DHT22;5576;50.008;10.596;2023-08-30T10:45:02;19.20;99.90
11047;DHT22;5576;50.008;10.596;2023-08-30T10:47:31;19.30;99.90
11047;DHT22;5576;50.008;10.596;2023-08-30T10:49:59;19.60;99.90
11047;DHT22;5576;50.008;10.596;2023-08-30T10:52:27;19.70;99.90
11047;DHT22;5576;50.008;10.596;2023-08-30T10:55:13;19.60;99.90
11047;DHT22;5576;50.008;10.596;2023-08-30T10:57:44;19.60;99.90
11047;DHT22;5576;50.008;10.596;2023-08-30T11:00:18;19.40;99.90
11047;DHT22;5576;50.008;10.596;2023-08-30T11:02:45;19.40;99.90
11047;DHT22;5576;50.008;10.596;2023-08-30T11:05:12;19.60;99.90
11047;DHT22;5576;50.008;10.596;2023-08-30T11:07:37;19.70;99.90
11047;DHT22;5576;50.008;10.596;2023-08-30T11:10:05;19.80;99.90
11047;DHT22;5576;50.008;10.596;2023-08-30T11:12:31;22.40;99.90
11047;DHT22;5576;50.008;10.596;2023-08-30T11:14:57;20.00;99.90
11047;DHT22;5576;50.008;10.596;2023-08-30T11:17:23;20.20;99.90
11047;DHT22;5576;50.008;10.596;2023-08-30T11:19:51;20.20;99.90
11047;DHT22;5576;50.008;10.596;2023-08-30T11:22:22;20.10;99.90
11047;DHT22;5576;50.008;10.596;2023-08-30T11:24:48;20.00;99.90
11047;DHT22;5576;50.008;10.596;2023-08-30T11:27:17;19.90;99.90
11047;DHT22;5576;50.008;10.596;2023-08-30T11:29:43;19.70;99.90
11047;DHT22;5576;50.008;10.596;2023-08-30T11:32:09;19.70;99.90
11047;DHT22;5576;50.008;10.596;2023-08-30T11:34:34;18.20;99.90
11047;DHT22;5576;50.008;10.596;2023-08-30T11:37:00;19.90;99.90
11047;DHT22;5576;50.008;10.596;2023-08-30T11:39:28;20.00;99.90
11047;DHT22;5576;50.008;10.596;2023-08-30T11:41:54;20.10;99.90
11047;DHT22;5576;50.008;10.596;2023-08-30T11:44:23;20.10;99.90
11047;DHT22;5576;50.008;10.596;2023-08-30T11:46:58;20.10;99.90
11047;DHT22;5576;50.008;10.596;2023-08-30T11:49:24;20.00;99.90
11047;DHT22;5576;50.008;10.596;2023-08-30T11:51:51;20.00;99.90
11047;DHT22;5576;50.008;10.596;2023-08-30T11:54:19;19.90;99.90
11047;DHT22;5576;50.008;10.596;2023-08-30T11:56:46;19.80;99.90
11047;DHT22;5576;50.008;10.596;2023-08-30T11:59:20;19.70;99.90
11047;DHT22;5576;50.008;10.596;2023-08-30T12:01:47;19.70;99.90
11047;DHT22;5576;50.008;10.596;2023-08-30T12:04:13;19.70;99.90
11047;DHT22;5576;50.008;10.596;2023-08-30T12:06:39;18.20;99.90
11047;DHT22;5576;50.008;10.596;2023-08-30T12:09:05;19.60;99.90
11047;DHT22;5576;50.008;10.596;2023-08-30T12:14:02;19.60;99.90
11047;DHT22;5576;50.008;10.596;2023-08-30T12:16:28;19.40;99.90
11047;DHT22;5576;50.008;10.596;2023-08-30T12:18:54;19.30;99.90
11047;DHT22;5576;50.008;10.596;2023-08-30T12:21:19;19.30;99.90
11047;DHT22;5576;50.008;10.596;2023-08-30T12:23:45;18.80;99.90
11047;DHT22;5576;50.008;10.596;2023-08-30T12:26:11;19.10;99.90
11047;DHT22;5576;50.008;10.596;2023-08-30T12:28:38;19.20;99.90
11047;DHT22;5576;50.008;10.596;2023-08-30T12:31:05;19.10;99.90
11047;DHT22;5576;50.008;10.596;2023-08-30T12:33:30;19.10;99.90
11047;DHT22;5576;50.008;10.596;2023-08-30T12:35:57;22.50;99.90
11047;DHT22;5576;50.008;10.596;2023-08-30T12:38:24;17.50;99.90
11047;DHT22;5576;50.008;10.596;2023-08-30T12:40:51;19.00;99.90
11047;DHT22;5576;50.008;10.596;2023-08-30T12:43:18;18.90;99.90
11047;DHT22;5576;50.008;10.596;2023-08-30T12:45:46;18.10;99.90
11047;DHT22;5576;50.008;10.596;2023-08-30T12:48:15;18.90;99.90
11047;DHT22;5576;50.008;10.596;2023-08-30T12:50:43;18.10;99.90
11047;DHT22;5576;50.008;10.596;2023-08-30T12:53:09;18.90;99.90
11047;DHT22;5576;50.008;10.596;2023-08-30T12:55:35;18.80;99.90
11047;DHT22;5576;50.008;10.596;2023-08-30T12:58:01;18.90;99.90
11047;DHT22;5576;50.008;10.596;2023-08-30T13:00:28;18.90;99.90
11047;DHT22;5576;50.008;10.596;2023-08-30T13:02:54;18.90;99.90
11047;DHT22;5576;50.008;10.596;2023-08-30T13:05:20;19.00;99.90
11047;DHT22;5576;50.008;10.596;2023-08-30T13:07:47;19.00;99.90
11047;DHT22;5576;50.008;10.596;2023-08-30T13:12:55;19.10;99.90
11047;DHT22;5576;50.008;10.596;2023-08-30T13:15:22;19.10;99.90
11047;DHT22;5576;50.008;10.596;2023-08-30T13:17:48;19.10;99.90
11047;DHT22;5576;50.008;10.596;2023-08-30T13:20:14;18.90;99.90
11047;DHT22;5576;50.008;10.596;2023-08-30T13:22:39;18.90;99.90
11047;DHT22;5576;50.008;10.596;2023-08-30T13:25:05;18.80;99.90
11047;DHT22;5576;50.008;10.596;2023-08-30T13:27:31;18.80;99.90
11047;DHT22;5576;50.008;10.596;2023-08-30T13:29:57;18.80;99.90
11047;DHT22;5576;50.008;10.596;2023-08-30T13:32:23;18.90;99.90
11047;DHT22;5576;50.008;10.596;2023-08-30T13:34:50;19.00;99.90
11047;DHT22;5576;50.008;10.596;2023-08-30T13:37:16;19.00;99.90
11047;DHT22;5576;50.008;10.596;2023-08-30T13:39:42;19.10;99.90
11047;DHT22;5576;50.008;10.596;2023-08-30T13:42:08;19.20;99.90
11047;DHT22;5576;50.008;10.596;2023-08-30T13:44:33;19.50;99.90
11047;DHT22;5576;50.008;10.596;2023-08-30T13:47:04;20.90;99.90
11047;DHT22;5576;50.008;10.596;2023-08-30T13:49:30;19.40;99.90
11047;DHT22;5576;50.008;10.596;2023-08-30T13:51:56;19.40;99.90
11047;DHT22;5576;50.008;10.596;2023-08-30T13:54:22;19.30;99.90
11047;DHT22;5576;50.008;10.596;2023-08-30T13:56:49;19.30;99.90
11047;DHT22;5576;50.008;10.596;2023-08-30T13:59:16;19.20;99.90
11047;DHT22;5576;50.008;10.596;2023-08-30T14:01:41;15.70;99.90
11047;DHT22;5576;50.008;10.596;2023-08-30T14:04:08;19.10;99.90
11047;DHT22;5576;50.008;10.596;2023-08-30T14:06:34;19.10;99.90
11047;DHT22;5576;50.008;10.596;2023-08-30T14:09:00;19.00;99.90
11047;DHT22;5576;50.008;10.596;2023-08-30T14:11:26;19.00;99.90
11047;DHT22;5576;50.008;10.596;2023-08-30T14:13:52;19.10;99.90
11047;DHT22;5576;50.008;10.596;2023-08-30T14:16:17;19.10;99.90
11047;DHT22;5576;50.008;10.596;2023-08-30T14:18:43;19.10;99.90
11047;DHT22;5576;50.008;10.596;2023-08-30T14:21:09;19.10;99.90
11047;DHT22;5576;50.008;10.596;2023-08-30T14:23:35;19.60;99.90
11047;DHT22;5576;50.008;10.596;2023-08-30T14:26:03;19.10;99.90
11047;DHT22;5576;50.008;10.596;2023-08-30T14:28:35;19.00;99.90
11047;DHT22;5576;50.008;10.596;2023-08-30T14:31:01;19.00;99.90
11047;DHT22;5576;50.008;10.596;2023-08-30T14:33:27;19.00;99.90
11047;DHT22;5576;50.008;10.596;2023-08-30T14:35:52;20.50;99.90
11047;DHT22;5576;50.008;10.596;2023-08-30T14:38:19;22.20;99.90
11047;DHT22;5576;50.008;10.596;2023-08-30T14:40:54;19.00;99.90
11047;DHT22;5576;50.008;10.596;2023-08-30T14:43:20;18.80;99.90
11047;DHT22;5576;50.008;10.596;2023-08-30T14:45:46;18.90;99.90
11047;DHT22;5576;50.008;10.596;2023-08-30T14:48:11;18.80;99.90
11047;DHT22;5576;50.008;10.596;2023-08-30T14:50:37;18.80;99.90
11047;DHT22;5576;50.008;10.596;2023-08-30T14:53:03;18.80;99.90
11047;DHT22;5576;50.008;10.596;2023-08-30T14:55:29;18.80;99.90
11047;DHT22;5576;50.008;10.596;2023-08-30T14:57:55;18.80;99.90
11047;DHT22;5576;50.008;10.596;2023-08-30T15:00:21;15.10;99.90
11047;DHT22;5576;50.008;10.596;2023-08-30T15:02:47;18.90;99.90
11047;DHT22;5576;50.008;10.596;2023-08-30T15:05:12;18.90;99.90
11047;DHT22;5576;50.008;10.596;2023-08-30T15:07:38;18.90;99.90
11047;DHT22;5576;50.008;10.596;2023-08-30T15:10:04;18.90;99.90
11047;DHT22;5576;50.008;10.596;2023-08-30T15:12:29;18.90;99.90
11047;DHT22;5576;50.008;10.596;2023-08-30T15:14:55;18.80;99.90
11047;DHT22;5576;50.008;10.596;2023-08-30T15:17:21;18.90;99.90
11047;DHT22;5576;50.008;10.596;2023-08-30T15:19:46;19.50;99.90
11047;DHT22;5576;50.008;10.596;2023-08-30T15:22:12;18.90;99.90
11047;DHT22;5576;50.008;10.596;2023-08-30T15:24:38;18.90;99.90
11047;DHT22;5576;50.008;10.596;2023-08-30T15:27:04;19.00;99.90
11047;DHT22;5576;50.008;10.596;2023-08-30T15:31:56;19.00;99.90
11047;DHT22;5576;50.008;10.596;2023-08-30T15:34:21;19.20;99.90
11047;DHT22;5576;50.008;10.596;2023-08-30T15:36:47;19.30;99.90
11047;DHT22;5576;50.008;10.596;2023-08-30T15:39:13;19.20;99.90
11047;DHT22;5576;50.008;10.596;2023-08-30T15:41:41;19.20;99.90
11047;DHT22;5576;50.008;10.596;2023-08-30T15:44:07;19.20;99.90
11047;DHT22;5576;50.008;10.596;2023-08-30T15:46:32;19.10;99.90
11047;DHT22;5576;50.008;10.596;2023-08-30T15:51:25;19.50;99.90
11047;DHT22;5576;50.008;10.596;2023-08-30T15:53:51;19.70;99.90
11047;DHT22;5576;50.008;10.596;2023-08-30T15:56:17;19.60;99.90
11047;DHT22;5576;50.008;10.596;2023-08-30T15:58:42;19.40;99.90
11047;DHT22;5576;50.008;10.596;2023-08-30T16:01:08;19.30;99.90